Station: Melbourne Airport  

  Atmospheric Gas Attenuation - ITU Rec 676-11   ----------------- dB/100km -----------------
Date Time Temp RH % AH g/m3 Dew Point Wind Direction Speed kph Gust kph Barometer mB Rainfall Since 9am 24GHz 47GHz 76GHz 122GHz 134GHz 241GHz
08/05 12:30 15 71 9.1 9.8 35 48 1023.8 0.2 20.6 26.8 41.7 109.3 104.3 359.4
08/05 12:20 14.6 72 9.01 9.6 37 48 1023.8 0.2 20.4 26.7 41.5 108.9 103.7 357.0
08/05 12:10 15.1 77 9.93 11.1 28 32 1023.8 0.2 22.3 28.1 45.0 118.3 115.4 398.1
08/05 12:00 14.5 82 10.2 11.5 32 41 1024 0.2 23.0 28.8 46.5 122.3 120.1 414.3
08/05 11:50 13.6 86 10.12 11.3 30 33 1023.9 0.2 22.8 28.9 46.7 122.8 120.4 415.2
08/05 11:40 13.9 84 10.07 11.2 26 33 1023.9 0.2 22.7 28.7 46.3 121.7 119.2 411.1
08/05 11:30 14.8 74 9.37 10.2 30 37 1024 0 21.2 27.3 42.9 112.6 108.3 373.0
08/05 11:20 15.4 76 9.99 11.2 32 41 1023.8 0 22.5 28.1 45.1 118.5 115.8 399.4
08/05 11:10 14.3 84 10.32 11.6 30 35 1023.9 0 23.2 29.0 47.2 123.9 122.1 421.2
08/05 11:00 13.5 85 9.94 11 30 41 1024 0 22.5 28.6 46.0 120.9 118.0 406.9
08/05 10:50 13.6 85 10 11.1 30 33 1024 0 22.6 28.7 46.2 121.4 118.7 409.3
08/05 10:40 14.4 72 8.9 9.4 39 48 1023.6 0 20.2 26.6 41.2 108.0 102.5 352.7
08/05 10:30 14.3 73 8.97 9.5 32 44 1023.6 0 20.3 26.7 41.5 108.9 103.5 356.4
08/05 10:20 14.4 73 9.02 9.6 32 35 1023.4 0 20.4 26.8 41.6 109.2 104.1 358.2
08/05 10:10 14.8 74 9.37 10.2 28 33 1023.4 0 21.2 27.2 42.9 112.5 108.2 372.8
08/05 10:00 14.7 74 9.32 10.1 32 41 1023.4 0 21.1 27.2 42.7 112.1 107.7 370.9
08/05 09:50 14.5 74 9.2 9.9 32 39 1023.3 0 20.8 27.0 42.3 111.1 106.3 366.2
08/05 09:40 14.5 74 9.2 9.9 28 32 1023 0 20.8 27.0 42.3 111.0 106.3 366.1
08/05 09:30 14.2 75 9.16 9.8 32 43 1023 0 20.8 27.1 42.3 111.0 106.2 365.6
08/05 09:20 14.3 74 9.09 9.7 33 39 1023 0 20.6 26.9 42.0 110.1 105.1 361.9
08/05 09:10 13.5 80 9.36 10.1 24 30 1023.1 0 21.2 27.6 43.5 114.2 109.9 378.5
08/05 09:00 13.6 79 9.3 10 32 43 1023.1 0 21.1 27.5 43.2 113.4 108.9 375.2
08/05 08:50 13.4 81 9.42 10.2 33 37 1023.1 0.6 21.4 27.7 43.8 115.1 110.8 381.9
08/05 08:40 13.5 79 9.24 9.9 32 37 1022.8 0.6 21.0 27.4 43.0 112.9 108.2 372.7
08/05 08:30 13.3 79 9.13 9.7 33 41 1022.9 0.6 20.7 27.3 42.7 111.9 107.0 368.4
08/05 08:20 12.9 81 9.13 9.7 30 33 1022.6 0.6 20.8 27.4 42.9 112.5 107.5 370.2
08/05 08:10 12.7 83 9.24 9.9 33 37 1022.5 0.6 21.0 27.6 43.4 114.0 109.3 376.4
08/05 08:00 12.4 87 9.51 10.3 32 43 1022.4 0.6 21.6 28.2 44.7 117.5 113.5 391.0
08/05 07:50 12.4 87 9.51 10.3 30 33 1022.3 0.6 21.6 28.2 44.7 117.5 113.5 391.0
08/05 07:40 12.2 84 9.07 9.6 20 26 1022.2 0.6 20.7 27.5 43.0 112.8 107.6 370.5
08/05 07:30 12.4 83 9.07 9.6 30 41 1022.1 0.6 20.7 27.4 42.9 112.5 107.4 369.5
08/05 07:20 12.6 82 9.07 9.6 35 43 1021.8 0.6 20.6 27.4 42.7 112.2 107.1 368.5
08/05 07:10 12.5 84 9.24 9.9 28 33 1021.8 0.6 21.0 27.7 43.5 114.2 109.5 377.2
08/05 07:00 12.5 85 9.35 10 26 32 1021.8 0.6 21.3 27.9 44.0 115.4 111.1 382.5
08/05 06:50 12.6 84 9.29 10 28 32 1021.7 0.6 21.1 27.7 43.7 114.6 110.1 379.1
08/05 06:40 12.8 82 9.19 9.8 24 28 1021.7 0.6 20.9 27.5 43.1 113.2 108.4 373.3
08/05 06:30 12.7 83 9.24 9.9 24 33 1021.6 0.6 21.0 27.6 43.4 113.9 109.2 376.2
08/05 06:20 12.7 83 9.24 9.9 30 33 1021.5 0.6 21.0 27.6 43.4 113.9 109.2 376.1
08/05 06:10 12.7 83 9.24 9.9 32 35 1021.4 0.6 21.0 27.6 43.4 113.9 109.2 376.1
08/05 06:00 12.7 83 9.24 9.9 30 39 1021.4 0.6 21.0 27.6 43.4 113.9 109.2 376.1
08/05 05:50 12.8 82 9.19 9.8 28 39 1021.3 0.6 20.9 27.5 43.1 113.2 108.4 373.2
08/05 05:40 12.9 82 9.24 9.9 24 28 1021.2 0.6 21.0 27.5 43.3 113.6 108.9 375.1
08/05 05:30 12.8 82 9.19 9.8 26 37 1021.1 0.6 20.9 27.5 43.1 113.1 108.4 373.1
08/05 05:20 12.6 84 9.29 10 28 33 1021.1 0.6 21.1 27.7 43.6 114.5 110.0 378.9
08/05 05:10 12.6 85 9.4 10.1 20 26 1021 0.6 21.4 27.9 44.1 115.8 111.5 384.2
08/05 05:00 12.4 86 9.4 10.1 20 28 1021 0.6 21.4 27.9 44.2 116.1 111.8 385.2
08/05 04:50 12.2 88 9.5 10.3 17 20 1020.9 0.6 21.6 28.2 44.7 117.5 113.5 391.1
08/05 04:40 12.1 89 9.55 10.3 17 19 1020.8 0.6 21.7 28.3 45.0 118.2 114.4 394.0
08/05 04:30 11.9 90 9.53 10.3 19 26 1020.7 0.6 21.7 28.3 45.0 118.3 114.4 394.0
08/05 04:20 11.8 91 9.58 10.4 15 19 1020.5 0.6 21.8 28.4 45.3 119.0 115.2 396.9
08/05 04:10 11.6 92 9.56 10.3 15 19 1020.6 0.6 21.8 28.5 45.3 119.1 115.2 397.0
08/05 04:00 11.5 93 9.61 10.4 15 22 1020.5 0.6 21.9 28.6 45.6 119.8 116.1 400.0
08/05 03:50 11.6 92 9.56 10.3 17 19 1020.6 0.6 21.8 28.5 45.3 119.1 115.2 397.0
08/05 03:40 11.9 88 9.32 10 17 22 1020.4 0.6 21.2 27.9 44.1 115.8 111.4 383.6
08/05 03:30 12 85 9.06 9.6 20 28 1020.3 0.6 20.7 27.5 43.0 112.8 107.6 370.4
08/05 03:20 12.1 83 8.9 9.3 19 22 1020.3 0.6 20.3 27.2 42.2 110.8 105.3 362.2
08/05 03:10 12.1 84 9.01 9.5 24 28 1020.2 0.6 20.5 27.3 42.7 112.0 106.8 367.5
08/05 03:00 11.9 84 8.9 9.3 19 24 1020.3 0.6 20.3 27.2 42.3 111.1 105.5 363.2
08/05 02:50 11.9 84 8.9 9.3 17 22 1020.3 0.6 20.3 27.2 42.3 111.1 105.5 363.2
08/05 02:40 11.9 84 8.9 9.3 26 28 1020.3 0.6 20.3 27.2 42.3 111.1 105.5 363.2
08/05 02:30 11.7 83 8.68 8.9 24 30 1020.3 0.6 19.9 26.9 41.5 108.9 102.8 353.5
08/05 02:20 11.6 84 8.73 9 20 28 1020.4 0.6 20.0 27.0 41.8 109.6 103.6 356.4
08/05 02:10 11.4 83 8.52 8.6 22 28 1020.4 0.6 19.5 26.7 41.0 107.6 101.0 347.2
08/05 02:00 11.3 84 8.57 8.7 24 32 1020.4 0.6 19.6 26.9 41.3 108.3 101.8 350.1
08/05 01:50 11.4 83 8.52 8.6 24 30 1020.6 0.6 19.5 26.8 41.0 107.6 101.0 347.3
08/05 01:40 11.6 82 8.52 8.6 22 28 1020.7 0.6 19.5 26.7 40.9 107.3 100.8 346.4
08/05 01:30 11.4 83 8.52 8.6 20 28 1020.8 0.6 19.5 26.8 41.0 107.6 101.0 347.3
08/05 01:20 11.4 83 8.52 8.6 24 26 1020.8 0.6 19.5 26.8 41.0 107.6 101.0 347.3
08/05 01:10 11.4 82 8.42 8.4 28 33 1020.8 0.6 19.3 26.6 40.6 106.5 99.7 342.6
08/05 01:00 11.4 82 8.42 8.4 26 33 1021 0.6 19.3 26.6 40.6 106.5 99.7 342.6
08/05 00:50 11.4 82 8.42 8.4 24 30 1021 0.6 19.3 26.6 40.6 106.5 99.7 342.6
08/05 00:40 11.4 81 8.32 8.3 28 32 1021.1 0.6 19.1 26.4 40.2 105.4 98.3 337.9
08/05 00:30 11.3 81 8.26 8.2 24 35 1021.1 0.6 19.0 26.4 40.0 104.9 97.7 335.5
08/05 00:20 11.2 81 8.21 8.1 28 32 1021.1 0.6 18.9 26.3 39.9 104.5 97.1 333.5
08/05 00:10 11.3 81 8.26 8.2 26 30 1021.2 0.6 19.0 26.4 40.0 104.9 97.7 335.5
08/05 00:00 11.4 80 8.21 8.1 28 37 1021.1 0.6 18.9 26.3 39.8 104.2 96.9 332.7
07/05 23:50 11.3 80 8.16 8 32 37 1021.2 0.6 18.8 26.2 39.6 103.8 96.3 330.7
07/05 23:40 11.3 80 8.16 8 28 30 1021.4 0.6 18.8 26.2 39.6 103.8 96.3 330.8
07/05 23:30 11.3 79 8.06 7.8 28 37 1021.5 0.6 18.5 26.1 39.2 102.8 95.0 326.1
07/05 23:20 11.4 79 8.11 7.9 30 35 1021.7 0.6 18.6 26.1 39.4 103.2 95.5 328.1
07/05 23:10 11.3 78 7.96 7.6 32 35 1021.8 0.6 18.3 25.9 38.8 101.7 93.7 321.5
07/05 23:00 11.2 78 7.91 7.5 30 39 1021.9 0.6 18.2 25.9 38.7 101.3 93.1 319.5
07/05 22:50 11.1 78 7.86 7.4 30 32 1022 0.6 18.1 25.8 38.5 100.9 92.6 317.6
07/05 22:40 11 78 7.81 7.3 28 35 1022.1 0.6 18.0 25.8 38.4 100.5 92.0 315.7
07/05 22:30 10.9 78 7.76 7.2 30 37 1022.2 0.6 17.9 25.7 38.2 100.1 91.5 313.8
07/05 22:20 10.9 78 7.76 7.2 24 30 1022.2 0.6 17.9 25.7 38.2 100.1 91.5 313.8
07/05 22:10 10.9 77 7.66 7 22 26 1022.3 0.6 17.7 25.5 37.8 99.0 90.2 309.1
07/05 22:00 10.8 77 7.61 6.9 30 37 1022.5 0.6 17.6 25.5 37.7 98.6 89.6 307.2
07/05 21:50 10.7 77 7.56 6.8 32 35 1022.4 0.6 17.5 25.4 37.5 98.2 89.1 305.3
07/05 21:40 10.8 76 7.51 6.7 28 32 1022.5 0.6 17.4 25.3 37.3 97.5 88.3 302.6
07/05 21:30 10.6 77 7.52 6.7 24 32 1022.6 0.6 17.4 25.4 37.4 97.9 88.7 303.8
07/05 21:20 10.6 77 7.52 6.7 19 24 1022.3 0.6 17.4 25.4 37.4 97.9 88.6 303.8
07/05 21:10 10.6 76 7.42 6.6 22 26 1022.3 0.6 17.2 25.2 37.0 96.8 87.3 299.1
07/05 21:00 10.7 76 7.47 6.6 28 37 1022.6 0.6 17.3 25.3 37.2 97.2 87.9 301.1
07/05 20:50 10.7 75 7.37 6.5 33 35 1022.6 0.6 17.1 25.1 36.8 96.2 86.5 296.5
07/05 20:40 10.7 74 7.27 6.3 19 22 1022.7 0.6 16.9 25.0 36.4 95.1 85.2 291.9
07/05 20:30 10.7 73 7.17 6.1 20 28 1023 0.6 16.7 24.8 36.0 94.1 83.9 287.3
07/05 20:20 10.6 74 7.22 6.2 15 17 1023 0.6 16.8 24.9 36.2 94.7 84.7 290.0
07/05 20:10 10.7 74 7.27 6.3 20 26 1023 0.6 16.9 25.0 36.4 95.1 85.3 291.9
07/05 20:00 10.6 73 7.13 6 22 32 1023.1 0.6 16.6 24.8 35.9 93.8 83.5 285.9

Last Refresh: 08-May-2026 12:08:16

Bureau of Meteorology